Broen, Sweden

12:09 PM CET on March 01, 2015 (GMT +0100)
Eftra | Change Station
CLOSE
Current Station
Personal Weather Station
Location: Falkenberg, Halland
Elevation: 146 ft
Nearby Weather Stations

Elev 146 ft 56.86 °N, 12.65 °E | Updated 6 seconds ago

Light Rain
Light Rain
35.1 °F
Feels Like 29 °F
N
6.8
Wind Variable Wind from SE
Gusts 25.9 mph

Today
High -- | Low -- °F
--% Chance of Precip.
Yesterday
High -- | Low -- °F
Precip. -- in
7:03 AM 5:41 PM
Waxing Gibbous, 84% visible
Pressure 29.36 in
Visibility 5.0 miles
Clouds Few 700 ft
Overcast 900 ft
Windchill 29 °F
Dew Point 34 °F
Humidity 97%
Rainfall 0.00 in
Snow Depth Not available.
UV 1 out of 12
Pollen Not available.
Air Quality Not available.
Flu Activity Not available.
METAR ESMT 011050Z AUTO 16016KT 8000 -RA FEW007/// OVC009/// 02/00 Q0994

More Conditions Fewer Conditions

Pressure 29.36 in
Visibility 5.0 miles
Clouds Few 700 ft
Overcast 900 ft
Windchill 29 °F
Dew Point 34 °F
Humidity 97%
Rainfall 0.00 in
Snow Depth Not available.
UV 1 out of 12
Pollen Not available.
Air Quality Not available.
Flu Activity Not available.
METAR ESMT 011050Z AUTO 16016KT 8000 -RA FEW007/// OVC009/// 02/00 Q0994

More Conditions Fewer Conditions

10-Day Weather Forecast

Almanac

Astronomy

Mar. 01, 2015 Rise Set
Actual Time
Civil Twilight
Nautical Twilight
Astronomical Twilight
Moon
Length of Visible Light
Length of Day
Tomorrow will be .
, % of the Moon is Illuminated

Today's Extremes

Country Highs Country Lows

Community

WunderPhotos

Upload Photos

1,801,359 photos uploaded!

WunderBlogs® & News

Nearby

Air Quality

  Air Quality AQ Index Pollutant
Not available.

Snow Depth

Station Depth Elevation

Earthquake Activity

City Distance Mag. Time & Date
Minimum magnitude displayed is 2.5.

Coastal Water Temperatures

Place Temperature

Nearby Weather Stations